sensor_id;sensor_type;location;lat;lon;timestamp;P1;durP1;ratioP1;P2;durP2;ratioP2
17714;SDS011;8977;50.902;4.314;2022-12-18T00:00:59;43.77;;;26.83;;
17714;SDS011;8977;50.902;4.314;2022-12-18T00:03:30;42.23;;;25.97;;
17714;SDS011;8977;50.902;4.314;2022-12-18T00:05:59;42.27;;;25.20;;
17714;SDS011;8977;50.902;4.314;2022-12-18T00:08:26;40.57;;;25.10;;
17714;SDS011;8977;50.902;4.314;2022-12-18T00:10:54;42.60;;;26.17;;
17714;SDS011;8977;50.902;4.314;2022-12-18T00:13:21;35.90;;;23.33;;
17714;SDS011;8977;50.902;4.314;2022-12-18T00:15:48;40.80;;;25.13;;
17714;SDS011;8977;50.902;4.314;2022-12-18T00:18:15;47.03;;;28.13;;
17714;SDS011;8977;50.902;4.314;2022-12-18T00:20:41;46.07;;;26.63;;
17714;SDS011;8977;50.902;4.314;2022-12-18T00:23:10;44.70;;;25.63;;
17714;SDS011;8977;50.902;4.314;2022-12-18T00:25:37;40.40;;;23.90;;
17714;SDS011;8977;50.902;4.314;2022-12-18T00:28:04;43.23;;;25.13;;
17714;SDS011;8977;50.902;4.314;2022-12-18T00:30:31;39.30;;;23.97;;
17714;SDS011;8977;50.902;4.314;2022-12-18T00:32:58;41.03;;;24.83;;
17714;SDS011;8977;50.902;4.314;2022-12-18T00:35:24;36.87;;;22.93;;
17714;SDS011;8977;50.902;4.314;2022-12-18T00:37:51;39.72;;;26.67;;
17714;SDS011;8977;50.902;4.314;2022-12-18T00:40:19;38.83;;;23.57;;
17714;SDS011;8977;50.902;4.314;2022-12-18T00:42:47;34.77;;;21.47;;
17714;SDS011;8977;50.902;4.314;2022-12-18T00:45:22;35.50;;;22.23;;
17714;SDS011;8977;50.902;4.314;2022-12-18T00:47:50;37.07;;;22.27;;
17714;SDS011;8977;50.902;4.314;2022-12-18T00:50:17;39.00;;;25.73;;
17714;SDS011;8977;50.902;4.314;2022-12-18T00:52:44;37.73;;;25.23;;
17714;SDS011;8977;50.902;4.314;2022-12-18T00:55:11;39.47;;;24.60;;
17714;SDS011;8977;50.902;4.314;2022-12-18T00:57:40;41.37;;;25.27;;
17714;SDS011;8977;50.902;4.314;2022-12-18T01:00:09;38.73;;;25.60;;
17714;SDS011;8977;50.902;4.314;2022-12-18T01:02:38;41.23;;;25.37;;
17714;SDS011;8977;50.902;4.314;2022-12-18T01:05:05;38.63;;;25.10;;
17714;SDS011;8977;50.902;4.314;2022-12-18T01:07:33;35.87;;;23.27;;
17714;SDS011;8977;50.902;4.314;2022-12-18T01:09:59;40.27;;;24.37;;
17714;SDS011;8977;50.902;4.314;2022-12-18T01:12:26;36.97;;;23.57;;
17714;SDS011;8977;50.902;4.314;2022-12-18T01:14:55;37.10;;;24.93;;
17714;SDS011;8977;50.902;4.314;2022-12-18T01:17:21;38.20;;;22.70;;
17714;SDS011;8977;50.902;4.314;2022-12-18T01:19:49;34.40;;;22.17;;
17714;SDS011;8977;50.902;4.314;2022-12-18T01:22:16;37.20;;;23.37;;
17714;SDS011;8977;50.902;4.314;2022-12-18T01:24:43;35.40;;;21.17;;
17714;SDS011;8977;50.902;4.314;2022-12-18T01:27:12;38.37;;;21.53;;
17714;SDS011;8977;50.902;4.314;2022-12-18T01:29:39;34.97;;;21.63;;
17714;SDS011;8977;50.902;4.314;2022-12-18T01:32:07;35.10;;;21.77;;
17714;SDS011;8977;50.902;4.314;2022-12-18T01:34:35;32.40;;;20.97;;
17714;SDS011;8977;50.902;4.314;2022-12-18T01:37:02;33.43;;;21.17;;
17714;SDS011;8977;50.902;4.314;2022-12-18T01:39:31;32.63;;;20.13;;
17714;SDS011;8977;50.902;4.314;2022-12-18T01:41:59;30.73;;;19.97;;
17714;SDS011;8977;50.902;4.314;2022-12-18T01:47:30;30.97;;;19.37;;
17714;SDS011;8977;50.902;4.314;2022-12-18T01:50:01;29.77;;;19.10;;
17714;SDS011;8977;50.902;4.314;2022-12-18T01:52:33;34.57;;;20.67;;
17714;SDS011;8977;50.902;4.314;2022-12-18T01:55:02;30.47;;;19.73;;
17714;SDS011;8977;50.902;4.314;2022-12-18T01:57:30;32.67;;;19.73;;
17714;SDS011;8977;50.902;4.314;2022-12-18T01:59:59;31.47;;;19.10;;
17714;SDS011;8977;50.902;4.314;2022-12-18T02:02:30;30.10;;;19.23;;
17714;SDS011;8977;50.902;4.314;2022-12-18T02:04:57;29.03;;;18.80;;
17714;SDS011;8977;50.902;4.314;2022-12-18T02:07:26;29.07;;;19.47;;
17714;SDS011;8977;50.902;4.314;2022-12-18T02:10:02;29.03;;;18.93;;
17714;SDS011;8977;50.902;4.314;2022-12-18T02:12:35;30.83;;;18.80;;
17714;SDS011;8977;50.902;4.314;2022-12-18T02:15:13;31.33;;;19.17;;
17714;SDS011;8977;50.902;4.314;2022-12-18T02:17:48;32.17;;;19.80;;
17714;SDS011;8977;50.902;4.314;2022-12-18T02:20:21;31.37;;;18.67;;
17714;SDS011;8977;50.902;4.314;2022-12-18T02:22:58;30.40;;;18.63;;
17714;SDS011;8977;50.902;4.314;2022-12-18T02:25:37;30.60;;;18.30;;
17714;SDS011;8977;50.902;4.314;2022-12-18T02:28:22;31.90;;;19.37;;
17714;SDS011;8977;50.902;4.314;2022-12-18T02:30:54;30.17;;;19.77;;
17714;SDS011;8977;50.902;4.314;2022-12-18T02:33:26;29.30;;;19.27;;
17714;SDS011;8977;50.902;4.314;2022-12-18T02:35:55;32.07;;;18.70;;
17714;SDS011;8977;50.902;4.314;2022-12-18T02:38:28;27.60;;;18.00;;
17714;SDS011;8977;50.902;4.314;2022-12-18T02:40:59;29.70;;;17.83;;
17714;SDS011;8977;50.902;4.314;2022-12-18T02:43:30;27.47;;;17.70;;
17714;SDS011;8977;50.902;4.314;2022-12-18T02:45:58;26.50;;;17.23;;
17714;SDS011;8977;50.902;4.314;2022-12-18T02:48:46;28.93;;;18.10;;
17714;SDS011;8977;50.902;4.314;2022-12-18T02:51:15;30.37;;;18.27;;
17714;SDS011;8977;50.902;4.314;2022-12-18T02:53:48;26.17;;;17.07;;
17714;SDS011;8977;50.902;4.314;2022-12-18T02:56:23;27.60;;;16.90;;
17714;SDS011;8977;50.902;4.314;2022-12-18T02:58:58;27.73;;;16.13;;
17714;SDS011;8977;50.902;4.314;2022-12-18T03:01:28;24.40;;;15.03;;
17714;SDS011;8977;50.902;4.314;2022-12-18T03:04:01;21.00;;;13.17;;
17714;SDS011;8977;50.902;4.314;2022-12-18T03:06:35;21.40;;;13.30;;
17714;SDS011;8977;50.902;4.314;2022-12-18T03:09:06;19.93;;;13.27;;
17714;SDS011;8977;50.902;4.314;2022-12-18T03:11:36;20.47;;;12.43;;
17714;SDS011;8977;50.902;4.314;2022-12-18T03:14:25;19.77;;;12.27;;
17714;SDS011;8977;50.902;4.314;2022-12-18T03:16:56;17.97;;;12.30;;
17714;SDS011;8977;50.902;4.314;2022-12-18T03:19:26;19.00;;;12.20;;
17714;SDS011;8977;50.902;4.314;2022-12-18T03:21:56;17.10;;;11.93;;
17714;SDS011;8977;50.902;4.314;2022-12-18T03:24:26;18.37;;;11.53;;
17714;SDS011;8977;50.902;4.314;2022-12-18T03:26:57;17.20;;;12.13;;
17714;SDS011;8977;50.902;4.314;2022-12-18T03:29:30;17.60;;;11.97;;
17714;SDS011;8977;50.902;4.314;2022-12-18T03:32:02;17.00;;;10.80;;
17714;SDS011;8977;50.902;4.314;2022-12-18T03:34:34;16.97;;;11.20;;
17714;SDS011;8977;50.902;4.314;2022-12-18T03:37:03;18.07;;;11.73;;
17714;SDS011;8977;50.902;4.314;2022-12-18T03:39:31;16.97;;;11.33;;
17714;SDS011;8977;50.902;4.314;2022-12-18T03:42:01;18.57;;;11.50;;
17714;SDS011;8977;50.902;4.314;2022-12-18T03:44:35;17.47;;;12.43;;
17714;SDS011;8977;50.902;4.314;2022-12-18T03:47:09;17.30;;;12.23;;
17714;SDS011;8977;50.902;4.314;2022-12-18T03:49:45;17.63;;;12.30;;
17714;SDS011;8977;50.902;4.314;2022-12-18T03:52:20;16.73;;;11.60;;
17714;SDS011;8977;50.902;4.314;2022-12-18T03:54:53;17.50;;;11.73;;
17714;SDS011;8977;50.902;4.314;2022-12-18T03:57:24;18.77;;;12.47;;
17714;SDS011;8977;50.902;4.314;2022-12-18T03:59:56;17.93;;;11.50;;
17714;SDS011;8977;50.902;4.314;2022-12-18T04:02:26;15.87;;;10.97;;
17714;SDS011;8977;50.902;4.314;2022-12-18T04:04:55;17.00;;;11.20;;
17714;SDS011;8977;50.902;4.314;2022-12-18T04:07:25;14.07;;;10.50;;
17714;SDS011;8977;50.902;4.314;2022-12-18T04:09:54;15.63;;;10.00;;
17714;SDS011;8977;50.902;4.314;2022-12-18T04:12:24;15.67;;;10.60;;
17714;SDS011;8977;50.902;4.314;2022-12-18T04:14:52;16.77;;;10.73;;
17714;SDS011;8977;50.902;4.314;2022-12-18T04:17:21;12.97;;;9.57;;
17714;SDS011;8977;50.902;4.314;2022-12-18T04:19:48;14.50;;;9.60;;
17714;SDS011;8977;50.902;4.314;2022-12-18T04:22:15;15.10;;;10.43;;
17714;SDS011;8977;50.902;4.314;2022-12-18T04:24:46;15.17;;;10.03;;
17714;SDS011;8977;50.902;4.314;2022-12-18T04:27:14;15.27;;;10.63;;
17714;SDS011;8977;50.902;4.314;2022-12-18T04:29:41;17.63;;;10.47;;
17714;SDS011;8977;50.902;4.314;2022-12-18T04:32:07;15.70;;;11.20;;
17714;SDS011;8977;50.902;4.314;2022-12-18T04:34:36;14.27;;;9.97;;
17714;SDS011;8977;50.902;4.314;2022-12-18T04:37:03;16.37;;;10.73;;
17714;SDS011;8977;50.902;4.314;2022-12-18T04:39:29;16.07;;;9.80;;
17714;SDS011;8977;50.902;4.314;2022-12-18T04:41:56;15.20;;;10.27;;
17714;SDS011;8977;50.902;4.314;2022-12-18T04:44:26;15.20;;;10.53;;
17714;SDS011;8977;50.902;4.314;2022-12-18T04:46:54;16.90;;;10.23;;
17714;SDS011;8977;50.902;4.314;2022-12-18T04:49:21;15.57;;;9.90;;
17714;SDS011;8977;50.902;4.314;2022-12-18T04:51:50;15.37;;;10.80;;
17714;SDS011;8977;50.902;4.314;2022-12-18T04:54:18;15.03;;;10.00;;
17714;SDS011;8977;50.902;4.314;2022-12-18T04:56:45;14.27;;;9.53;;
17714;SDS011;8977;50.902;4.314;2022-12-18T04:59:12;14.30;;;10.17;;
17714;SDS011;8977;50.902;4.314;2022-12-18T05:01:39;15.47;;;10.00;;
17714;SDS011;8977;50.902;4.314;2022-12-18T05:04:06;15.30;;;10.13;;
17714;SDS011;8977;50.902;4.314;2022-12-18T05:06:33;15.47;;;10.20;;
17714;SDS011;8977;50.902;4.314;2022-12-18T05:09:02;14.43;;;9.93;;
17714;SDS011;8977;50.902;4.314;2022-12-18T05:11:29;11.73;;;8.63;;
17714;SDS011;8977;50.902;4.314;2022-12-18T05:13:56;14.30;;;9.13;;
17714;SDS011;8977;50.902;4.314;2022-12-18T05:16:23;12.77;;;9.10;;
17714;SDS011;8977;50.902;4.314;2022-12-18T05:18:50;15.17;;;9.73;;
17714;SDS011;8977;50.902;4.314;2022-12-18T05:21:16;14.10;;;9.43;;
17714;SDS011;8977;50.902;4.314;2022-12-18T05:23:44;13.13;;;9.07;;
17714;SDS011;8977;50.902;4.314;2022-12-18T05:26:14;12.90;;;9.00;;
17714;SDS011;8977;50.902;4.314;2022-12-18T05:28:42;11.70;;;8.37;;
17714;SDS011;8977;50.902;4.314;2022-12-18T05:31:10;12.47;;;8.43;;
17714;SDS011;8977;50.902;4.314;2022-12-18T05:33:37;12.33;;;8.27;;
17714;SDS011;8977;50.902;4.314;2022-12-18T05:36:05;13.20;;;9.00;;
17714;SDS011;8977;50.902;4.314;2022-12-18T05:38:34;16.30;;;9.43;;
17714;SDS011;8977;50.902;4.314;2022-12-18T05:41:02;12.93;;;8.73;;
17714;SDS011;8977;50.902;4.314;2022-12-18T05:43:31;12.73;;;8.90;;
17714;SDS011;8977;50.902;4.314;2022-12-18T05:46:02;11.00;;;8.00;;
17714;SDS011;8977;50.902;4.314;2022-12-18T05:48:30;11.93;;;8.23;;
17714;SDS011;8977;50.902;4.314;2022-12-18T05:51:02;14.30;;;8.40;;
17714;SDS011;8977;50.902;4.314;2022-12-18T05:53:30;12.23;;;8.33;;
17714;SDS011;8977;50.902;4.314;2022-12-18T05:55:59;11.67;;;8.70;;
17714;SDS011;8977;50.902;4.314;2022-12-18T05:58:26;12.47;;;8.43;;
17714;SDS011;8977;50.902;4.314;2022-12-18T06:00:54;11.33;;;8.00;;
17714;SDS011;8977;50.902;4.314;2022-12-18T06:03:21;14.03;;;9.60;;
17714;SDS011;8977;50.902;4.314;2022-12-18T06:05:48;10.53;;;8.20;;
17714;SDS011;8977;50.902;4.314;2022-12-18T06:08:15;13.53;;;8.93;;
17714;SDS011;8977;50.902;4.314;2022-12-18T06:10:48;11.90;;;8.60;;
17714;SDS011;8977;50.902;4.314;2022-12-18T06:13:16;16.87;;;8.97;;
17714;SDS011;8977;50.902;4.314;2022-12-18T06:15:43;14.00;;;9.20;;
17714;SDS011;8977;50.902;4.314;2022-12-18T06:18:11;12.90;;;9.03;;
17714;SDS011;8977;50.902;4.314;2022-12-18T06:20:38;13.03;;;8.70;;
17714;SDS011;8977;50.902;4.314;2022-12-18T06:23:06;13.03;;;8.67;;
17714;SDS011;8977;50.902;4.314;2022-12-18T06:25:36;13.67;;;8.97;;
17714;SDS011;8977;50.902;4.314;2022-12-18T06:28:04;12.60;;;8.73;;
17714;SDS011;8977;50.902;4.314;2022-12-18T06:30:31;12.17;;;9.63;;
17714;SDS011;8977;50.902;4.314;2022-12-18T06:32:58;13.77;;;9.30;;
17714;SDS011;8977;50.902;4.314;2022-12-18T06:35:26;12.43;;;8.67;;
17714;SDS011;8977;50.902;4.314;2022-12-18T06:37:53;13.13;;;8.57;;
17714;SDS011;8977;50.902;4.314;2022-12-18T06:40:20;12.93;;;8.83;;
17714;SDS011;8977;50.902;4.314;2022-12-18T06:42:48;12.53;;;8.50;;
17714;SDS011;8977;50.902;4.314;2022-12-18T06:45:14;13.93;;;9.50;;
17714;SDS011;8977;50.902;4.314;2022-12-18T06:47:41;12.73;;;9.17;;
17714;SDS011;8977;50.902;4.314;2022-12-18T06:50:08;16.77;;;10.40;;
17714;SDS011;8977;50.902;4.314;2022-12-18T06:52:37;14.47;;;9.87;;
17714;SDS011;8977;50.902;4.314;2022-12-18T06:55:05;16.70;;;10.43;;
17714;SDS011;8977;50.902;4.314;2022-12-18T06:57:34;15.70;;;10.03;;
17714;SDS011;8977;50.902;4.314;2022-12-18T07:00:02;13.53;;;9.03;;
17714;SDS011;8977;50.902;4.314;2022-12-18T07:02:30;13.27;;;9.13;;
17714;SDS011;8977;50.902;4.314;2022-12-18T07:04:57;12.23;;;8.80;;
17714;SDS011;8977;50.902;4.314;2022-12-18T07:07:24;12.37;;;8.83;;
17714;SDS011;8977;50.902;4.314;2022-12-18T07:09:52;13.83;;;8.87;;
17714;SDS011;8977;50.902;4.314;2022-12-18T07:12:19;13.53;;;8.37;;
17714;SDS011;8977;50.902;4.314;2022-12-18T07:14:46;11.53;;;8.33;;
17714;SDS011;8977;50.902;4.314;2022-12-18T07:17:13;13.17;;;7.80;;
17714;SDS011;8977;50.902;4.314;2022-12-18T07:19:40;10.77;;;7.83;;
17714;SDS011;8977;50.902;4.314;2022-12-18T07:22:06;11.33;;;7.67;;
17714;SDS011;8977;50.902;4.314;2022-12-18T07:24:33;10.27;;;7.30;;
17714;SDS011;8977;50.902;4.314;2022-12-18T07:27:02;9.40;;;6.90;;
17714;SDS011;8977;50.902;4.314;2022-12-18T07:29:28;10.20;;;7.13;;
17714;SDS011;8977;50.902;4.314;2022-12-18T07:31:55;11.13;;;7.23;;
17714;SDS011;8977;50.902;4.314;2022-12-18T07:34:22;10.93;;;7.20;;
17714;SDS011;8977;50.902;4.314;2022-12-18T07:36:49;10.67;;;7.73;;
17714;SDS011;8977;50.902;4.314;2022-12-18T07:39:16;12.10;;;8.03;;
17714;SDS011;8977;50.902;4.314;2022-12-18T07:41:43;10.27;;;7.83;;
17714;SDS011;8977;50.902;4.314;2022-12-18T07:44:32;9.33;;;7.20;;
17714;SDS011;8977;50.902;4.314;2022-12-18T07:46:59;11.17;;;7.47;;
17714;SDS011;8977;50.902;4.314;2022-12-18T07:49:25;10.57;;;7.10;;
17714;SDS011;8977;50.902;4.314;2022-12-18T07:51:53;11.43;;;7.60;;
17714;SDS011;8977;50.902;4.314;2022-12-18T07:54:21;12.33;;;7.67;;
17714;SDS011;8977;50.902;4.314;2022-12-18T07:56:48;11.37;;;8.23;;
17714;SDS011;8977;50.902;4.314;2022-12-18T07:59:17;10.97;;;7.57;;
17714;SDS011;8977;50.902;4.314;2022-12-18T08:01:45;12.53;;;8.17;;
17714;SDS011;8977;50.902;4.314;2022-12-18T08:04:12;11.33;;;7.97;;
17714;SDS011;8977;50.902;4.314;2022-12-18T08:06:38;11.20;;;7.80;;
17714;SDS011;8977;50.902;4.314;2022-12-18T08:09:06;10.77;;;7.50;;
17714;SDS011;8977;50.902;4.314;2022-12-18T08:11:33;12.90;;;7.60;;
17714;SDS011;8977;50.902;4.314;2022-12-18T08:14:00;10.80;;;7.77;;
17714;SDS011;8977;50.902;4.314;2022-12-18T08:16:27;11.43;;;7.60;;
17714;SDS011;8977;50.902;4.314;2022-12-18T08:18:56;11.27;;;7.23;;
17714;SDS011;8977;50.902;4.314;2022-12-18T08:21:24;12.17;;;7.73;;
17714;SDS011;8977;50.902;4.314;2022-12-18T08:23:53;11.67;;;7.80;;
17714;SDS011;8977;50.902;4.314;2022-12-18T08:26:21;13.47;;;8.50;;
17714;SDS011;8977;50.902;4.314;2022-12-18T08:28:48;11.80;;;8.10;;
17714;SDS011;8977;50.902;4.314;2022-12-18T08:31:16;9.97;;;7.57;;
17714;SDS011;8977;50.902;4.314;2022-12-18T08:33:43;9.30;;;6.80;;
17714;SDS011;8977;50.902;4.314;2022-12-18T08:36:12;11.03;;;7.70;;
17714;SDS011;8977;50.902;4.314;2022-12-18T08:38:39;9.87;;;6.77;;
17714;SDS011;8977;50.902;4.314;2022-12-18T08:41:06;11.20;;;7.07;;
17714;SDS011;8977;50.902;4.314;2022-12-18T08:43:35;8.97;;;7.43;;
17714;SDS011;8977;50.902;4.314;2022-12-18T08:46:20;9.17;;;7.00;;
17714;SDS011;8977;50.902;4.314;2022-12-18T08:48:49;10.50;;;7.57;;
17714;SDS011;8977;50.902;4.314;2022-12-18T08:51:19;8.73;;;6.70;;
17714;SDS011;8977;50.902;4.314;2022-12-18T08:53:46;11.30;;;7.10;;
17714;SDS011;8977;50.902;4.314;2022-12-18T08:56:13;10.57;;;7.30;;
17714;SDS011;8977;50.902;4.314;2022-12-18T08:58:42;12.23;;;8.00;;
17714;SDS011;8977;50.902;4.314;2022-12-18T09:01:10;10.50;;;7.67;;
17714;SDS011;8977;50.902;4.314;2022-12-18T09:03:40;10.33;;;7.53;;
17714;SDS011;8977;50.902;4.314;2022-12-18T09:06:07;10.67;;;7.50;;
17714;SDS011;8977;50.902;4.314;2022-12-18T09:08:35;10.33;;;7.40;;
17714;SDS011;8977;50.902;4.314;2022-12-18T09:11:02;11.23;;;8.30;;
17714;SDS011;8977;50.902;4.314;2022-12-18T09:13:30;10.33;;;7.43;;
17714;SDS011;8977;50.902;4.314;2022-12-18T09:15:56;8.67;;;7.37;;
17714;SDS011;8977;50.902;4.314;2022-12-18T09:18:23;10.30;;;7.77;;
17714;SDS011;8977;50.902;4.314;2022-12-18T09:20:51;9.97;;;7.47;;
17714;SDS011;8977;50.902;4.314;2022-12-18T09:23:18;11.20;;;8.00;;
17714;SDS011;8977;50.902;4.314;2022-12-18T09:25:46;11.57;;;7.40;;
17714;SDS011;8977;50.902;4.314;2022-12-18T09:28:15;10.47;;;7.30;;
17714;SDS011;8977;50.902;4.314;2022-12-18T09:30:44;12.57;;;7.97;;
17714;SDS011;8977;50.902;4.314;2022-12-18T09:33:12;11.63;;;6.90;;
17714;SDS011;8977;50.902;4.314;2022-12-18T09:35:40;12.33;;;7.77;;
17714;SDS011;8977;50.902;4.314;2022-12-18T09:38:08;10.47;;;7.27;;
17714;SDS011;8977;50.902;4.314;2022-12-18T09:40:40;10.17;;;7.20;;
17714;SDS011;8977;50.902;4.314;2022-12-18T09:43:13;13.20;;;8.07;;
17714;SDS011;8977;50.902;4.314;2022-12-18T09:45:44;10.90;;;7.57;;
17714;SDS011;8977;50.902;4.314;2022-12-18T09:48:15;11.20;;;8.43;;
17714;SDS011;8977;50.902;4.314;2022-12-18T09:50:46;11.10;;;7.60;;
17714;SDS011;8977;50.902;4.314;2022-12-18T09:53:17;13.10;;;8.37;;
17714;SDS011;8977;50.902;4.314;2022-12-18T09:55:47;10.00;;;7.87;;
17714;SDS011;8977;50.902;4.314;2022-12-18T09:58:26;11.23;;;8.13;;
17714;SDS011;8977;50.902;4.314;2022-12-18T10:00:58;12.57;;;8.67;;
17714;SDS011;8977;50.902;4.314;2022-12-18T10:03:25;13.43;;;7.97;;
17714;SDS011;8977;50.902;4.314;2022-12-18T10:05:55;12.17;;;8.37;;
17714;SDS011;8977;50.902;4.314;2022-12-18T10:08:30;11.57;;;8.50;;
17714;SDS011;8977;50.902;4.314;2022-12-18T10:11:11;11.17;;;7.90;;
17714;SDS011;8977;50.902;4.314;2022-12-18T10:13:52;13.37;;;8.67;;
17714;SDS011;8977;50.902;4.314;2022-12-18T10:16:22;14.27;;;9.17;;
17714;SDS011;8977;50.902;4.314;2022-12-18T10:19:00;13.30;;;8.97;;
17714;SDS011;8977;50.902;4.314;2022-12-18T10:21:39;11.60;;;8.77;;
17714;SDS011;8977;50.902;4.314;2022-12-18T10:24:14;12.53;;;8.70;;
17714;SDS011;8977;50.902;4.314;2022-12-18T10:26:50;12.90;;;8.43;;
17714;SDS011;8977;50.902;4.314;2022-12-18T10:29:20;13.57;;;9.10;;
17714;SDS011;8977;50.902;4.314;2022-12-18T10:31:47;12.63;;;8.87;;
17714;SDS011;8977;50.902;4.314;2022-12-18T10:34:16;12.93;;;8.63;;
17714;SDS011;8977;50.902;4.314;2022-12-18T10:36:43;12.30;;;8.57;;
17714;SDS011;8977;50.902;4.314;2022-12-18T10:39:16;12.50;;;8.90;;
17714;SDS011;8977;50.902;4.314;2022-12-18T10:41:44;14.17;;;9.50;;
17714;SDS011;8977;50.902;4.314;2022-12-18T10:44:16;15.13;;;10.20;;
17714;SDS011;8977;50.902;4.314;2022-12-18T10:46:46;13.80;;;9.33;;
17714;SDS011;8977;50.902;4.314;2022-12-18T10:49:19;13.67;;;10.00;;
17714;SDS011;8977;50.902;4.314;2022-12-18T10:51:49;14.17;;;9.83;;
17714;SDS011;8977;50.902;4.314;2022-12-18T10:54:21;14.57;;;10.20;;
17714;SDS011;8977;50.902;4.314;2022-12-18T10:56:49;14.87;;;9.73;;
17714;SDS011;8977;50.902;4.314;2022-12-18T10:59:18;15.10;;;10.33;;
17714;SDS011;8977;50.902;4.314;2022-12-18T11:01:48;14.10;;;9.77;;
17714;SDS011;8977;50.902;4.314;2022-12-18T11:04:18;14.03;;;10.47;;
17714;SDS011;8977;50.902;4.314;2022-12-18T11:06:54;14.10;;;9.63;;
17714;SDS011;8977;50.902;4.314;2022-12-18T11:09:23;17.37;;;10.57;;
17714;SDS011;8977;50.902;4.314;2022-12-18T11:11:51;14.83;;;10.00;;
17714;SDS011;8977;50.902;4.314;2022-12-18T11:14:21;16.37;;;11.03;;
17714;SDS011;8977;50.902;4.314;2022-12-18T11:16:52;14.53;;;11.07;;
17714;SDS011;8977;50.902;4.314;2022-12-18T11:19:21;15.37;;;11.10;;
17714;SDS011;8977;50.902;4.314;2022-12-18T11:21:56;15.47;;;10.00;;
17714;SDS011;8977;50.902;4.314;2022-12-18T11:24:25;15.63;;;10.30;;
17714;SDS011;8977;50.902;4.314;2022-12-18T11:26:54;14.00;;;10.63;;
17714;SDS011;8977;50.902;4.314;2022-12-18T11:29:23;14.47;;;9.77;;
17714;SDS011;8977;50.902;4.314;2022-12-18T11:32:10;16.57;;;10.67;;
17714;SDS011;8977;50.902;4.314;2022-12-18T11:34:58;16.13;;;11.37;;
17714;SDS011;8977;50.902;4.314;2022-12-18T11:37:29;14.67;;;10.33;;
17714;SDS011;8977;50.902;4.314;2022-12-18T11:39:59;16.03;;;10.73;;
17714;SDS011;8977;50.902;4.314;2022-12-18T11:42:35;14.53;;;10.23;;
17714;SDS011;8977;50.902;4.314;2022-12-18T11:45:09;16.37;;;10.20;;
17714;SDS011;8977;50.902;4.314;2022-12-18T11:47:56;14.13;;;10.53;;
17714;SDS011;8977;50.902;4.314;2022-12-18T11:50:28;16.27;;;11.13;;
17714;SDS011;8977;50.902;4.314;2022-12-18T11:52:58;14.97;;;10.17;;
17714;SDS011;8977;50.902;4.314;2022-12-18T11:55:28;15.87;;;10.83;;
17714;SDS011;8977;50.902;4.314;2022-12-18T11:58:04;13.83;;;10.43;;
17714;SDS011;8977;50.902;4.314;2022-12-18T12:00:40;15.63;;;10.13;;
17714;SDS011;8977;50.902;4.314;2022-12-18T12:03:18;12.73;;;9.83;;
17714;SDS011;8977;50.902;4.314;2022-12-18T12:06:05;15.33;;;10.13;;
17714;SDS011;8977;50.902;4.314;2022-12-18T12:08:43;16.60;;;11.73;;
17714;SDS011;8977;50.902;4.314;2022-12-18T12:11:20;12.30;;;9.10;;
17714;SDS011;8977;50.902;4.314;2022-12-18T12:13:56;15.60;;;10.43;;
17714;SDS011;8977;50.902;4.314;2022-12-18T12:16:34;14.90;;;10.17;;
17714;SDS011;8977;50.902;4.314;2022-12-18T12:19:16;17.57;;;11.10;;
17714;SDS011;8977;50.902;4.314;2022-12-18T12:21:56;15.13;;;10.90;;
17714;SDS011;8977;50.902;4.314;2022-12-18T12:24:31;17.03;;;11.47;;
17714;SDS011;8977;50.902;4.314;2022-12-18T12:27:07;20.87;;;11.43;;
17714;SDS011;8977;50.902;4.314;2022-12-18T12:29:46;16.70;;;10.90;;
17714;SDS011;8977;50.902;4.314;2022-12-18T12:32:23;16.57;;;11.13;;
17714;SDS011;8977;50.902;4.314;2022-12-18T12:35:05;17.90;;;10.93;;
17714;SDS011;8977;50.902;4.314;2022-12-18T12:37:44;14.83;;;10.37;;
17714;SDS011;8977;50.902;4.314;2022-12-18T12:40:15;15.23;;;10.07;;
17714;SDS011;8977;50.902;4.314;2022-12-18T12:42:50;18.13;;;13.75;;
17714;SDS011;8977;50.902;4.314;2022-12-18T12:45:40;15.73;;;11.40;;
17714;SDS011;8977;50.902;4.314;2022-12-18T12:48:13;17.00;;;12.53;;
17714;SDS011;8977;50.902;4.314;2022-12-18T12:50:48;15.77;;;10.67;;
17714;SDS011;8977;50.902;4.314;2022-12-18T12:53:19;15.87;;;10.70;;
17714;SDS011;8977;50.902;4.314;2022-12-18T12:55:51;14.87;;;10.20;;
17714;SDS011;8977;50.902;4.314;2022-12-18T12:58:21;15.40;;;9.83;;
17714;SDS011;8977;50.902;4.314;2022-12-18T13:00:53;17.10;;;11.20;;
17714;SDS011;8977;50.902;4.314;2022-12-18T13:03:30;17.27;;;11.20;;
17714;SDS011;8977;50.902;4.314;2022-12-18T13:06:11;15.37;;;10.97;;
17714;SDS011;8977;50.902;4.314;2022-12-18T13:08:54;15.63;;;10.00;;
17714;SDS011;8977;50.902;4.314;2022-12-18T13:11:35;18.17;;;11.57;;
17714;SDS011;8977;50.902;4.314;2022-12-18T13:14:22;18.33;;;11.63;;
17714;SDS011;8977;50.902;4.314;2022-12-18T13:17:03;20.73;;;12.60;;
17714;SDS011;8977;50.902;4.314;2022-12-18T13:19:50;19.03;;;12.20;;
17714;SDS011;8977;50.902;4.314;2022-12-18T13:22:30;19.60;;;12.20;;
17714;SDS011;8977;50.902;4.314;2022-12-18T13:25:00;20.37;;;12.23;;
17714;SDS011;8977;50.902;4.314;2022-12-18T13:30:42;16.77;;;12.77;;
17714;SDS011;8977;50.902;4.314;2022-12-18T13:36:15;19.27;;;12.83;;
17714;SDS011;8977;50.902;4.314;2022-12-18T13:41:52;18.90;;;12.90;;
17714;SDS011;8977;50.902;4.314;2022-12-18T13:44:24;18.50;;;12.73;;
17714;SDS011;8977;50.902;4.314;2022-12-18T13:46:56;22.27;;;13.80;;
17714;SDS011;8977;50.902;4.314;2022-12-18T13:49:25;19.13;;;12.50;;
17714;SDS011;8977;50.902;4.314;2022-12-18T13:51:56;19.03;;;13.63;;
17714;SDS011;8977;50.902;4.314;2022-12-18T13:54:27;20.17;;;14.50;;
17714;SDS011;8977;50.902;4.314;2022-12-18T13:56:59;20.07;;;13.47;;
17714;SDS011;8977;50.902;4.314;2022-12-18T13:59:33;22.20;;;14.70;;
17714;SDS011;8977;50.902;4.314;2022-12-18T14:02:04;21.60;;;14.10;;
17714;SDS011;8977;50.902;4.314;2022-12-18T14:04:39;22.77;;;14.70;;
17714;SDS011;8977;50.902;4.314;2022-12-18T14:07:06;21.17;;;14.27;;
17714;SDS011;8977;50.902;4.314;2022-12-18T14:09:40;23.17;;;14.87;;
17714;SDS011;8977;50.902;4.314;2022-12-18T14:12:12;22.87;;;15.23;;
17714;SDS011;8977;50.902;4.314;2022-12-18T14:14:59;21.57;;;14.93;;
17714;SDS011;8977;50.902;4.314;2022-12-18T14:17:30;23.40;;;16.07;;
17714;SDS011;8977;50.902;4.314;2022-12-18T14:19:58;23.23;;;15.07;;
17714;SDS011;8977;50.902;4.314;2022-12-18T14:22:25;21.90;;;14.90;;
17714;SDS011;8977;50.902;4.314;2022-12-18T14:25:15;24.20;;;15.10;;
17714;SDS011;8977;50.902;4.314;2022-12-18T14:27:45;22.07;;;14.40;;
17714;SDS011;8977;50.902;4.314;2022-12-18T14:33:05;26.17;;;15.50;;
17714;SDS011;8977;50.902;4.314;2022-12-18T14:35:37;22.67;;;14.67;;
17714;SDS011;8977;50.902;4.314;2022-12-18T14:38:16;25.13;;;15.73;;
17714;SDS011;8977;50.902;4.314;2022-12-18T14:40:48;28.00;;;20.63;;
17714;SDS011;8977;50.902;4.314;2022-12-18T14:43:18;25.53;;;16.43;;
17714;SDS011;8977;50.902;4.314;2022-12-18T14:45:45;24.10;;;16.27;;
17714;SDS011;8977;50.902;4.314;2022-12-18T14:48:14;22.67;;;15.77;;
17714;SDS011;8977;50.902;4.314;2022-12-18T14:50:43;26.80;;;17.93;;
17714;SDS011;8977;50.902;4.314;2022-12-18T14:53:18;22.27;;;15.57;;
17714;SDS011;8977;50.902;4.314;2022-12-18T14:55:50;23.10;;;15.70;;
17714;SDS011;8977;50.902;4.314;2022-12-18T14:58:18;26.20;;;16.43;;
17714;SDS011;8977;50.902;4.314;2022-12-18T15:00:45;26.90;;;16.30;;
17714;SDS011;8977;50.902;4.314;2022-12-18T15:03:13;28.57;;;16.50;;
17714;SDS011;8977;50.902;4.314;2022-12-18T15:05:44;23.87;;;15.30;;
17714;SDS011;8977;50.902;4.314;2022-12-18T15:08:27;25.83;;;16.20;;
17714;SDS011;8977;50.902;4.314;2022-12-18T15:11:02;25.60;;;16.37;;
17714;SDS011;8977;50.902;4.314;2022-12-18T15:13:30;27.10;;;17.20;;
17714;SDS011;8977;50.902;4.314;2022-12-18T15:15:57;33.50;;;16.13;;